sensor_id;sensor_type;location;lat;lon;timestamp;P1;durP1;ratioP1;P2;durP2;ratioP2
57321;SDS011;43159;51.006;18.224;2022-07-23T00:01:56;23.70;;;15.20;;
57321;SDS011;43159;51.006;18.224;2022-07-23T00:04:40;22.40;;;14.90;;
57321;SDS011;43159;51.006;18.224;2022-07-23T00:07:25;22.10;;;14.50;;
57321;SDS011;43159;51.006;18.224;2022-07-23T00:10:09;22.90;;;14.90;;
57321;SDS011;43159;51.006;18.224;2022-07-23T00:12:53;21.90;;;14.80;;
57321;SDS011;43159;51.006;18.224;2022-07-23T00:15:37;21.20;;;14.30;;
57321;SDS011;43159;51.006;18.224;2022-07-23T00:18:21;22.60;;;14.90;;
57321;SDS011;43159;51.006;18.224;2022-07-23T00:21:05;22.90;;;14.80;;
57321;SDS011;43159;51.006;18.224;2022-07-23T00:23:49;26.30;;;14.30;;
57321;SDS011;43159;51.006;18.224;2022-07-23T00:26:33;22.90;;;13.90;;
57321;SDS011;43159;51.006;18.224;2022-07-23T00:29:17;20.90;;;14.10;;
57321;SDS011;43159;51.006;18.224;2022-07-23T00:32:01;23.00;;;13.80;;
57321;SDS011;43159;51.006;18.224;2022-07-23T00:34:46;24.70;;;15.50;;
57321;SDS011;43159;51.006;18.224;2022-07-23T00:37:30;24.10;;;15.30;;
57321;SDS011;43159;51.006;18.224;2022-07-23T00:40:14;24.40;;;16.10;;
57321;SDS011;43159;51.006;18.224;2022-07-23T00:42:58;24.00;;;15.20;;
57321;SDS011;43159;51.006;18.224;2022-07-23T00:45:43;25.80;;;15.70;;
57321;SDS011;43159;51.006;18.224;2022-07-23T00:48:27;28.30;;;16.20;;
57321;SDS011;43159;51.006;18.224;2022-07-23T00:51:11;27.40;;;16.20;;
57321;SDS011;43159;51.006;18.224;2022-07-23T00:53:55;25.70;;;16.00;;
57321;SDS011;43159;51.006;18.224;2022-07-23T00:56:40;24.60;;;16.00;;
57321;SDS011;43159;51.006;18.224;2022-07-23T00:59:25;27.40;;;15.70;;
57321;SDS011;43159;51.006;18.224;2022-07-23T01:02:10;24.70;;;15.60;;
57321;SDS011;43159;51.006;18.224;2022-07-23T01:04:54;24.70;;;15.80;;
57321;SDS011;43159;51.006;18.224;2022-07-23T01:07:38;26.80;;;16.50;;
57321;SDS011;43159;51.006;18.224;2022-07-23T01:10:23;24.10;;;14.90;;
57321;SDS011;43159;51.006;18.224;2022-07-23T01:13:17;26.50;;;14.40;;
57321;SDS011;43159;51.006;18.224;2022-07-23T01:16:02;26.10;;;15.20;;
57321;SDS011;43159;51.006;18.224;2022-07-23T01:18:46;28.30;;;16.30;;
57321;SDS011;43159;51.006;18.224;2022-07-23T01:21:31;26.70;;;15.70;;
57321;SDS011;43159;51.006;18.224;2022-07-23T01:24:16;24.40;;;15.10;;
57321;SDS011;43159;51.006;18.224;2022-07-23T01:27:03;27.30;;;16.30;;
57321;SDS011;43159;51.006;18.224;2022-07-23T01:29:49;25.10;;;16.20;;
57321;SDS011;43159;51.006;18.224;2022-07-23T01:32:33;27.60;;;16.80;;
57321;SDS011;43159;51.006;18.224;2022-07-23T01:35:17;26.70;;;17.00;;
57321;SDS011;43159;51.006;18.224;2022-07-23T01:38:01;22.90;;;16.50;;
57321;SDS011;43159;51.006;18.224;2022-07-23T01:40:45;25.10;;;16.60;;
57321;SDS011;43159;51.006;18.224;2022-07-23T01:43:29;26.10;;;16.30;;
57321;SDS011;43159;51.006;18.224;2022-07-23T01:46:13;26.10;;;16.30;;
57321;SDS011;43159;51.006;18.224;2022-07-23T01:48:58;24.70;;;16.10;;
57321;SDS011;43159;51.006;18.224;2022-07-23T01:51:42;26.00;;;17.10;;
57321;SDS011;43159;51.006;18.224;2022-07-23T01:54:43;24.10;;;16.00;;
57321;SDS011;43159;51.006;18.224;2022-07-23T01:57:27;25.80;;;17.00;;
57321;SDS011;43159;51.006;18.224;2022-07-23T02:00:11;28.20;;;17.90;;
57321;SDS011;43159;51.006;18.224;2022-07-23T02:02:56;28.10;;;18.30;;
57321;SDS011;43159;51.006;18.224;2022-07-23T02:05:42;25.90;;;18.20;;
57321;SDS011;43159;51.006;18.224;2022-07-23T02:08:26;27.60;;;17.50;;
57321;SDS011;43159;51.006;18.224;2022-07-23T02:11:10;26.20;;;17.90;;
57321;SDS011;43159;51.006;18.224;2022-07-23T02:13:54;25.80;;;17.70;;
57321;SDS011;43159;51.006;18.224;2022-07-23T02:16:38;28.80;;;17.90;;
57321;SDS011;43159;51.006;18.224;2022-07-23T02:19:22;28.80;;;18.60;;
57321;SDS011;43159;51.006;18.224;2022-07-23T02:22:08;28.40;;;17.40;;
57321;SDS011;43159;51.006;18.224;2022-07-23T02:24:52;28.40;;;18.10;;
57321;SDS011;43159;51.006;18.224;2022-07-23T02:27:36;28.60;;;18.10;;
57321;SDS011;43159;51.006;18.224;2022-07-23T02:30:20;26.80;;;18.60;;
57321;SDS011;43159;51.006;18.224;2022-07-23T02:33:04;24.00;;;18.90;;
57321;SDS011;43159;51.006;18.224;2022-07-23T02:35:48;26.50;;;18.20;;
57321;SDS011;43159;51.006;18.224;2022-07-23T02:38:32;28.10;;;18.60;;
57321;SDS011;43159;51.006;18.224;2022-07-23T02:41:17;27.40;;;18.50;;
57321;SDS011;43159;51.006;18.224;2022-07-23T02:44:01;26.80;;;17.70;;
57321;SDS011;43159;51.006;18.224;2022-07-23T02:46:45;28.20;;;18.60;;
57321;SDS011;43159;51.006;18.224;2022-07-23T02:49:29;24.70;;;18.00;;
57321;SDS011;43159;51.006;18.224;2022-07-23T02:52:13;26.10;;;18.80;;
57321;SDS011;43159;51.006;18.224;2022-07-23T02:54:57;27.00;;;19.00;;
57321;SDS011;43159;51.006;18.224;2022-07-23T02:57:41;26.00;;;18.90;;
57321;SDS011;43159;51.006;18.224;2022-07-23T03:00:25;29.50;;;18.80;;
57321;SDS011;43159;51.006;18.224;2022-07-23T03:03:09;28.90;;;18.40;;
57321;SDS011;43159;51.006;18.224;2022-07-23T03:05:53;25.40;;;18.40;;
57321;SDS011;43159;51.006;18.224;2022-07-23T03:08:37;27.70;;;18.00;;
57321;SDS011;43159;51.006;18.224;2022-07-23T03:11:22;30.60;;;17.30;;
57321;SDS011;43159;51.006;18.224;2022-07-23T03:14:06;25.00;;;17.30;;
57321;SDS011;43159;51.006;18.224;2022-07-23T03:16:51;24.80;;;17.70;;
57321;SDS011;43159;51.006;18.224;2022-07-23T03:19:35;24.80;;;17.20;;
57321;SDS011;43159;51.006;18.224;2022-07-23T03:22:21;26.60;;;17.80;;
57321;SDS011;43159;51.006;18.224;2022-07-23T03:25:05;24.70;;;17.00;;
57321;SDS011;43159;51.006;18.224;2022-07-23T03:27:50;29.90;;;18.90;;
57321;SDS011;43159;51.006;18.224;2022-07-23T03:30:34;25.30;;;18.80;;
57321;SDS011;43159;51.006;18.224;2022-07-23T03:33:19;25.10;;;17.80;;
57321;SDS011;43159;51.006;18.224;2022-07-23T03:36:04;26.90;;;18.60;;
57321;SDS011;43159;51.006;18.224;2022-07-23T03:38:49;24.40;;;17.90;;
57321;SDS011;43159;51.006;18.224;2022-07-23T03:41:34;24.40;;;17.60;;
57321;SDS011;43159;51.006;18.224;2022-07-23T03:44:18;24.50;;;17.50;;
57321;SDS011;43159;51.006;18.224;2022-07-23T03:47:03;24.60;;;17.30;;
57321;SDS011;43159;51.006;18.224;2022-07-23T03:49:48;24.60;;;17.40;;
57321;SDS011;43159;51.006;18.224;2022-07-23T03:52:33;24.40;;;17.30;;
57321;SDS011;43159;51.006;18.224;2022-07-23T03:55:17;27.70;;;16.50;;
57321;SDS011;43159;51.006;18.224;2022-07-23T03:58:02;23.20;;;16.00;;
57321;SDS011;43159;51.006;18.224;2022-07-23T04:00:46;26.20;;;16.30;;
57321;SDS011;43159;51.006;18.224;2022-07-23T04:03:30;23.20;;;16.00;;
57321;SDS011;43159;51.006;18.224;2022-07-23T04:06:14;23.60;;;15.90;;
57321;SDS011;43159;51.006;18.224;2022-07-23T04:08:58;26.60;;;16.40;;
57321;SDS011;43159;51.006;18.224;2022-07-23T04:11:43;23.70;;;16.50;;
57321;SDS011;43159;51.006;18.224;2022-07-23T04:14:27;22.80;;;16.00;;
57321;SDS011;43159;51.006;18.224;2022-07-23T04:17:12;22.00;;;16.20;;
57321;SDS011;43159;51.006;18.224;2022-07-23T04:19:56;23.70;;;16.20;;
57321;SDS011;43159;51.006;18.224;2022-07-23T04:22:40;21.70;;;14.90;;
57321;SDS011;43159;51.006;18.224;2022-07-23T04:25:24;21.90;;;15.30;;
57321;SDS011;43159;51.006;18.224;2022-07-23T04:28:09;21.40;;;15.00;;
57321;SDS011;43159;51.006;18.224;2022-07-23T04:30:55;21.20;;;14.30;;
57321;SDS011;43159;51.006;18.224;2022-07-23T04:33:39;21.90;;;14.50;;
57321;SDS011;43159;51.006;18.224;2022-07-23T04:36:23;19.90;;;14.40;;
57321;SDS011;43159;51.006;18.224;2022-07-23T04:39:08;20.80;;;14.20;;
57321;SDS011;43159;51.006;18.224;2022-07-23T04:41:52;19.70;;;13.70;;
57321;SDS011;43159;51.006;18.224;2022-07-23T04:44:36;18.50;;;12.80;;
57321;SDS011;43159;51.006;18.224;2022-07-23T04:47:20;19.30;;;13.00;;
57321;SDS011;43159;51.006;18.224;2022-07-23T04:50:04;21.20;;;12.70;;
57321;SDS011;43159;51.006;18.224;2022-07-23T04:52:48;19.10;;;10.20;;
57321;SDS011;43159;51.006;18.224;2022-07-23T04:55:33;18.80;;;13.00;;
57321;SDS011;43159;51.006;18.224;2022-07-23T04:58:17;19.70;;;12.80;;
57321;SDS011;43159;51.006;18.224;2022-07-23T05:01:01;19.60;;;12.90;;
57321;SDS011;43159;51.006;18.224;2022-07-23T05:03:45;18.30;;;12.40;;
57321;SDS011;43159;51.006;18.224;2022-07-23T05:06:29;20.80;;;12.80;;
57321;SDS011;43159;51.006;18.224;2022-07-23T05:09:13;17.10;;;11.40;;
57321;SDS011;43159;51.006;18.224;2022-07-23T05:11:57;19.40;;;11.50;;
57321;SDS011;43159;51.006;18.224;2022-07-23T05:14:41;17.80;;;11.10;;
57321;SDS011;43159;51.006;18.224;2022-07-23T05:17:25;17.80;;;11.20;;
57321;SDS011;43159;51.006;18.224;2022-07-23T05:20:09;17.20;;;10.50;;
57321;SDS011;43159;51.006;18.224;2022-07-23T05:22:54;17.80;;;9.80;;
57321;SDS011;43159;51.006;18.224;2022-07-23T05:25:39;18.20;;;10.50;;
57321;SDS011;43159;51.006;18.224;2022-07-23T05:28:23;15.40;;;9.70;;
57321;SDS011;43159;51.006;18.224;2022-07-23T05:31:07;15.90;;;10.00;;
57321;SDS011;43159;51.006;18.224;2022-07-23T05:33:51;16.70;;;8.90;;
57321;SDS011;43159;51.006;18.224;2022-07-23T05:36:35;14.30;;;8.10;;
57321;SDS011;43159;51.006;18.224;2022-07-23T05:39:19;15.10;;;8.30;;
57321;SDS011;43159;51.006;18.224;2022-07-23T05:42:03;14.70;;;7.90;;
57321;SDS011;43159;51.006;18.224;2022-07-23T05:44:47;15.00;;;8.40;;
57321;SDS011;43159;51.006;18.224;2022-07-23T05:47:45;15.60;;;9.20;;
57321;SDS011;43159;51.006;18.224;2022-07-23T05:50:31;16.20;;;8.50;;
57321;SDS011;43159;51.006;18.224;2022-07-23T05:53:15;14.50;;;8.50;;
57321;SDS011;43159;51.006;18.224;2022-07-23T05:55:59;16.20;;;8.60;;
57321;SDS011;43159;51.006;18.224;2022-07-23T05:58:43;17.70;;;8.90;;
57321;SDS011;43159;51.006;18.224;2022-07-23T06:01:27;14.80;;;8.50;;
57321;SDS011;43159;51.006;18.224;2022-07-23T06:04:11;15.30;;;8.70;;
57321;SDS011;43159;51.006;18.224;2022-07-23T06:06:55;16.00;;;8.90;;
57321;SDS011;43159;51.006;18.224;2022-07-23T06:09:39;15.40;;;9.30;;
57321;SDS011;43159;51.006;18.224;2022-07-23T06:12:24;15.40;;;9.10;;
57321;SDS011;43159;51.006;18.224;2022-07-23T06:15:09;15.90;;;8.90;;
57321;SDS011;43159;51.006;18.224;2022-07-23T06:17:55;14.90;;;9.20;;
57321;SDS011;43159;51.006;18.224;2022-07-23T06:20:39;16.90;;;9.50;;
57321;SDS011;43159;51.006;18.224;2022-07-23T06:23:23;15.80;;;9.30;;
57321;SDS011;43159;51.006;18.224;2022-07-23T06:26:07;16.10;;;9.50;;
57321;SDS011;43159;51.006;18.224;2022-07-23T06:28:52;16.50;;;9.20;;
57321;SDS011;43159;51.006;18.224;2022-07-23T06:31:36;14.40;;;9.10;;
57321;SDS011;43159;51.006;18.224;2022-07-23T06:34:20;15.70;;;8.70;;
57321;SDS011;43159;51.006;18.224;2022-07-23T06:37:04;15.20;;;8.70;;
57321;SDS011;43159;51.006;18.224;2022-07-23T06:39:49;16.10;;;9.20;;
57321;SDS011;43159;51.006;18.224;2022-07-23T06:42:33;16.50;;;9.50;;
57321;SDS011;43159;51.006;18.224;2022-07-23T06:45:20;16.60;;;9.30;;
57321;SDS011;43159;51.006;18.224;2022-07-23T06:48:04;15.20;;;9.30;;
57321;SDS011;43159;51.006;18.224;2022-07-23T06:50:48;16.20;;;8.70;;
57321;SDS011;43159;51.006;18.224;2022-07-23T06:53:32;15.10;;;9.30;;
57321;SDS011;43159;51.006;18.224;2022-07-23T06:56:16;13.20;;;8.50;;
57321;SDS011;43159;51.006;18.224;2022-07-23T06:59:00;15.90;;;8.20;;
57321;SDS011;43159;51.006;18.224;2022-07-23T07:01:45;14.50;;;7.10;;
57321;SDS011;43159;51.006;18.224;2022-07-23T07:04:30;14.30;;;7.00;;
57321;SDS011;43159;51.006;18.224;2022-07-23T07:07:14;13.70;;;6.80;;
57321;SDS011;43159;51.006;18.224;2022-07-23T07:09:58;12.70;;;6.90;;
57321;SDS011;43159;51.006;18.224;2022-07-23T07:12:42;14.40;;;7.00;;
57321;SDS011;43159;51.006;18.224;2022-07-23T07:15:26;13.10;;;6.60;;
57321;SDS011;43159;51.006;18.224;2022-07-23T07:18:10;12.60;;;6.80;;
57321;SDS011;43159;51.006;18.224;2022-07-23T07:20:55;13.20;;;6.70;;
57321;SDS011;43159;51.006;18.224;2022-07-23T07:23:40;12.10;;;6.40;;
57321;SDS011;43159;51.006;18.224;2022-07-23T07:26:24;11.80;;;6.40;;
57321;SDS011;43159;51.006;18.224;2022-07-23T07:29:08;12.00;;;6.10;;
57321;SDS011;43159;51.006;18.224;2022-07-23T07:31:52;12.40;;;6.20;;
57321;SDS011;43159;51.006;18.224;2022-07-23T07:34:36;13.20;;;6.40;;
57321;SDS011;43159;51.006;18.224;2022-07-23T07:37:20;12.40;;;6.30;;
57321;SDS011;43159;51.006;18.224;2022-07-23T07:40:05;17.90;;;6.10;;
57321;SDS011;43159;51.006;18.224;2022-07-23T07:42:50;12.60;;;6.10;;
57321;SDS011;43159;51.006;18.224;2022-07-23T07:45:35;12.30;;;5.80;;
57321;SDS011;43159;51.006;18.224;2022-07-23T07:48:19;11.20;;;5.60;;
57321;SDS011;43159;51.006;18.224;2022-07-23T07:51:04;27.50;;;6.80;;
57321;SDS011;43159;51.006;18.224;2022-07-23T07:53:48;11.90;;;5.80;;
57321;SDS011;43159;51.006;18.224;2022-07-23T07:56:32;11.90;;;5.50;;
57321;SDS011;43159;51.006;18.224;2022-07-23T07:59:16;15.30;;;6.10;;
57321;SDS011;43159;51.006;18.224;2022-07-23T08:02:00;11.40;;;5.40;;
57321;SDS011;43159;51.006;18.224;2022-07-23T08:04:44;12.10;;;6.00;;
57321;SDS011;43159;51.006;18.224;2022-07-23T08:07:28;12.40;;;5.70;;
57321;SDS011;43159;51.006;18.224;2022-07-23T08:10:13;15.30;;;5.90;;
57321;SDS011;43159;51.006;18.224;2022-07-23T08:12:57;11.90;;;5.60;;
57321;SDS011;43159;51.006;18.224;2022-07-23T08:15:42;12.60;;;5.20;;
57321;SDS011;43159;51.006;18.224;2022-07-23T08:18:27;14.10;;;5.40;;
57321;SDS011;43159;51.006;18.224;2022-07-23T08:21:11;12.30;;;5.40;;
57321;SDS011;43159;51.006;18.224;2022-07-23T08:23:56;11.00;;;5.20;;
57321;SDS011;43159;51.006;18.224;2022-07-23T08:26:41;12.00;;;4.90;;
57321;SDS011;43159;51.006;18.224;2022-07-23T08:29:25;10.90;;;5.10;;
57321;SDS011;43159;51.006;18.224;2022-07-23T08:32:09;10.90;;;5.10;;
57321;SDS011;43159;51.006;18.224;2022-07-23T08:34:53;12.40;;;5.20;;
57321;SDS011;43159;51.006;18.224;2022-07-23T08:37:37;10.50;;;5.10;;
57321;SDS011;43159;51.006;18.224;2022-07-23T08:40:21;10.40;;;5.10;;
57321;SDS011;43159;51.006;18.224;2022-07-23T08:43:07;9.90;;;5.00;;
57321;SDS011;43159;51.006;18.224;2022-07-23T08:45:53;12.30;;;5.30;;
57321;SDS011;43159;51.006;18.224;2022-07-23T08:48:40;11.30;;;5.10;;
57321;SDS011;43159;51.006;18.224;2022-07-23T08:51:25;11.10;;;4.80;;
57321;SDS011;43159;51.006;18.224;2022-07-23T08:54:10;10.90;;;4.60;;
57321;SDS011;43159;51.006;18.224;2022-07-23T08:56:55;12.20;;;4.80;;
57321;SDS011;43159;51.006;18.224;2022-07-23T08:59:39;11.10;;;5.00;;
57321;SDS011;43159;51.006;18.224;2022-07-23T09:02:24;10.10;;;4.60;;
57321;SDS011;43159;51.006;18.224;2022-07-23T09:05:09;10.80;;;5.10;;
57321;SDS011;43159;51.006;18.224;2022-07-23T09:08:14;11.10;;;4.70;;
57321;SDS011;43159;51.006;18.224;2022-07-23T09:11:00;11.20;;;4.90;;
57321;SDS011;43159;51.006;18.224;2022-07-23T09:13:52;12.00;;;5.00;;
57321;SDS011;43159;51.006;18.224;2022-07-23T09:16:37;13.70;;;5.70;;
57321;SDS011;43159;51.006;18.224;2022-07-23T09:19:22;11.20;;;5.00;;
57321;SDS011;43159;51.006;18.224;2022-07-23T09:22:19;11.40;;;5.30;;
57321;SDS011;43159;51.006;18.224;2022-07-23T09:25:08;10.90;;;4.70;;
57321;SDS011;43159;51.006;18.224;2022-07-23T09:27:55;11.00;;;4.70;;
57321;SDS011;43159;51.006;18.224;2022-07-23T09:30:41;11.50;;;4.80;;
57321;SDS011;43159;51.006;18.224;2022-07-23T09:33:30;12.00;;;5.30;;
57321;SDS011;43159;51.006;18.224;2022-07-23T09:36:14;11.50;;;5.20;;
57321;SDS011;43159;51.006;18.224;2022-07-23T09:38:59;12.70;;;5.40;;
57321;SDS011;43159;51.006;18.224;2022-07-23T09:41:44;10.80;;;5.30;;
57321;SDS011;43159;51.006;18.224;2022-07-23T09:44:30;11.30;;;5.30;;
57321;SDS011;43159;51.006;18.224;2022-07-23T09:47:14;11.20;;;5.30;;
57321;SDS011;43159;51.006;18.224;2022-07-23T09:50:01;11.50;;;4.80;;
57321;SDS011;43159;51.006;18.224;2022-07-23T09:52:46;12.60;;;5.50;;
57321;SDS011;43159;51.006;18.224;2022-07-23T09:55:33;12.60;;;5.10;;
57321;SDS011;43159;51.006;18.224;2022-07-23T09:58:21;12.30;;;5.50;;
57321;SDS011;43159;51.006;18.224;2022-07-23T10:01:05;11.70;;;5.20;;
57321;SDS011;43159;51.006;18.224;2022-07-23T10:03:49;11.30;;;4.90;;
57321;SDS011;43159;51.006;18.224;2022-07-23T10:06:34;11.00;;;4.70;;
57321;SDS011;43159;51.006;18.224;2022-07-23T10:09:22;13.20;;;5.00;;
57321;SDS011;43159;51.006;18.224;2022-07-23T10:12:13;10.90;;;5.10;;
57321;SDS011;43159;51.006;18.224;2022-07-23T10:15:03;11.10;;;5.20;;
57321;SDS011;43159;51.006;18.224;2022-07-23T10:17:50;11.10;;;5.30;;
57321;SDS011;43159;51.006;18.224;2022-07-23T10:20:34;11.60;;;5.70;;
57321;SDS011;43159;51.006;18.224;2022-07-23T10:23:27;10.80;;;5.20;;
57321;SDS011;43159;51.006;18.224;2022-07-23T10:26:37;11.00;;;5.00;;
57321;SDS011;43159;51.006;18.224;2022-07-23T10:32:52;10.80;;;4.50;;
57321;SDS011;43159;51.006;18.224;2022-07-23T10:35:53;12.00;;;4.70;;
57321;SDS011;43159;51.006;18.224;2022-07-23T10:38:48;11.90;;;4.50;;
57321;SDS011;43159;51.006;18.224;2022-07-23T10:44:20;10.90;;;4.80;;
57321;SDS011;43159;51.006;18.224;2022-07-23T10:47:10;10.90;;;5.00;;
57321;SDS011;43159;51.006;18.224;2022-07-23T10:50:29;11.30;;;4.80;;
57321;SDS011;43159;51.006;18.224;2022-07-23T10:53:18;11.60;;;4.80;;
57321;SDS011;43159;51.006;18.224;2022-07-23T10:56:03;10.20;;;4.20;;
57321;SDS011;43159;51.006;18.224;2022-07-23T10:58:48;11.30;;;5.00;;
57321;SDS011;43159;51.006;18.224;2022-07-23T11:01:34;12.60;;;5.00;;
57321;SDS011;43159;51.006;18.224;2022-07-23T11:04:20;13.20;;;5.10;;
57321;SDS011;43159;51.006;18.224;2022-07-23T11:07:33;12.10;;;5.00;;
57321;SDS011;43159;51.006;18.224;2022-07-23T11:10:35;11.40;;;4.90;;
57321;SDS011;43159;51.006;18.224;2022-07-23T11:16:17;11.60;;;4.90;;
57321;SDS011;43159;51.006;18.224;2022-07-23T11:19:06;13.80;;;5.30;;
57321;SDS011;43159;51.006;18.224;2022-07-23T11:21:50;10.50;;;5.00;;
57321;SDS011;43159;51.006;18.224;2022-07-23T11:24:36;12.20;;;5.30;;
57321;SDS011;43159;51.006;18.224;2022-07-23T11:27:38;14.30;;;5.40;;
57321;SDS011;43159;51.006;18.224;2022-07-23T11:36:02;14.50;;;6.10;;
57321;SDS011;43159;51.006;18.224;2022-07-23T11:38:47;13.10;;;5.90;;
57321;SDS011;43159;51.006;18.224;2022-07-23T11:41:43;12.50;;;5.70;;
57321;SDS011;43159;51.006;18.224;2022-07-23T11:44:28;14.10;;;6.10;;
57321;SDS011;43159;51.006;18.224;2022-07-23T11:47:22;14.10;;;6.10;;
57321;SDS011;43159;51.006;18.224;2022-07-23T11:50:07;13.50;;;6.10;;
57321;SDS011;43159;51.006;18.224;2022-07-23T11:52:52;16.80;;;6.30;;
57321;SDS011;43159;51.006;18.224;2022-07-23T11:55:37;14.00;;;6.40;;
57321;SDS011;43159;51.006;18.224;2022-07-23T11:58:22;13.70;;;6.40;;
57321;SDS011;43159;51.006;18.224;2022-07-23T12:01:06;17.50;;;6.30;;
57321;SDS011;43159;51.006;18.224;2022-07-23T12:03:51;13.20;;;6.20;;
57321;SDS011;43159;51.006;18.224;2022-07-23T12:06:37;14.10;;;6.20;;
57321;SDS011;43159;51.006;18.224;2022-07-23T12:09:22;13.00;;;6.40;;
57321;SDS011;43159;51.006;18.224;2022-07-23T12:12:06;12.90;;;5.50;;
57321;SDS011;43159;51.006;18.224;2022-07-23T12:14:51;156.20;;;16.10;;
57321;SDS011;43159;51.006;18.224;2022-07-23T12:17:38;68.30;;;10.70;;
57321;SDS011;43159;51.006;18.224;2022-07-23T12:20:28;23.90;;;7.80;;
57321;SDS011;43159;51.006;18.224;2022-07-23T12:23:18;15.30;;;7.50;;
57321;SDS011;43159;51.006;18.224;2022-07-23T12:26:04;16.30;;;8.50;;
57321;SDS011;43159;51.006;18.224;2022-07-23T12:28:53;17.30;;;9.20;;
57321;SDS011;43159;51.006;18.224;2022-07-23T12:31:38;17.30;;;10.20;;
57321;SDS011;43159;51.006;18.224;2022-07-23T12:34:22;17.90;;;11.50;;
57321;SDS011;43159;51.006;18.224;2022-07-23T12:37:06;15.40;;;9.90;;
57321;SDS011;43159;51.006;18.224;2022-07-23T12:39:50;16.90;;;9.80;;
57321;SDS011;43159;51.006;18.224;2022-07-23T12:42:41;18.80;;;11.30;;
57321;SDS011;43159;51.006;18.224;2022-07-23T12:45:26;16.10;;;11.00;;
57321;SDS011;43159;51.006;18.224;2022-07-23T12:48:21;17.10;;;11.40;;
57321;SDS011;43159;51.006;18.224;2022-07-23T12:51:16;18.40;;;11.70;;
57321;SDS011;43159;51.006;18.224;2022-07-23T12:54:06;16.70;;;11.20;;
57321;SDS011;43159;51.006;18.224;2022-07-23T12:56:52;16.80;;;11.50;;
57321;SDS011;43159;51.006;18.224;2022-07-23T12:59:36;19.60;;;11.90;;
57321;SDS011;43159;51.006;18.224;2022-07-23T13:02:21;20.90;;;12.50;;
57321;SDS011;43159;51.006;18.224;2022-07-23T13:05:05;19.70;;;12.50;;
57321;SDS011;43159;51.006;18.224;2022-07-23T13:07:49;20.00;;;12.00;;
57321;SDS011;43159;51.006;18.224;2022-07-23T13:10:33;21.30;;;13.70;;
57321;SDS011;43159;51.006;18.224;2022-07-23T13:13:19;21.80;;;14.70;;
57321;SDS011;43159;51.006;18.224;2022-07-23T13:16:05;18.60;;;13.20;;
57321;SDS011;43159;51.006;18.224;2022-07-23T13:18:49;19.30;;;12.70;;
57321;SDS011;43159;51.006;18.224;2022-07-23T13:21:34;17.90;;;12.70;;
57321;SDS011;43159;51.006;18.224;2022-07-23T13:24:18;19.30;;;12.50;;
57321;SDS011;43159;51.006;18.224;2022-07-23T13:27:02;16.80;;;11.10;;
57321;SDS011;43159;51.006;18.224;2022-07-23T13:29:47;17.50;;;10.40;;
57321;SDS011;43159;51.006;18.224;2022-07-23T13:32:31;15.60;;;9.30;;
57321;SDS011;43159;51.006;18.224;2022-07-23T13:35:15;17.70;;;9.00;;
57321;SDS011;43159;51.006;18.224;2022-07-23T13:37:59;15.50;;;8.80;;
57321;SDS011;43159;51.006;18.224;2022-07-23T13:40:44;15.70;;;8.50;;
57321;SDS011;43159;51.006;18.224;2022-07-23T13:43:29;20.10;;;8.60;;
57321;SDS011;43159;51.006;18.224;2022-07-23T13:46:13;19.50;;;9.20;;
57321;SDS011;43159;51.006;18.224;2022-07-23T13:48:57;19.90;;;9.30;;
57321;SDS011;43159;51.006;18.224;2022-07-23T13:51:41;17.70;;;8.60;;
57321;SDS011;43159;51.006;18.224;2022-07-23T13:54:25;19.90;;;10.60;;
57321;SDS011;43159;51.006;18.224;2022-07-23T13:57:09;19.70;;;11.20;;
57321;SDS011;43159;51.006;18.224;2022-07-23T13:59:53;19.60;;;12.30;;
57321;SDS011;43159;51.006;18.224;2022-07-23T14:02:38;20.50;;;12.20;;
57321;SDS011;43159;51.006;18.224;2022-07-23T14:05:23;19.20;;;11.50;;
57321;SDS011;43159;51.006;18.224;2022-07-23T14:08:08;16.60;;;10.70;;
57321;SDS011;43159;51.006;18.224;2022-07-23T14:10:52;19.80;;;11.40;;
57321;SDS011;43159;51.006;18.224;2022-07-23T14:13:36;17.70;;;10.20;;
57321;SDS011;43159;51.006;18.224;2022-07-23T14:16:20;18.10;;;10.10;;
57321;SDS011;43159;51.006;18.224;2022-07-23T14:19:04;14.80;;;9.20;;
57321;SDS011;43159;51.006;18.224;2022-07-23T14:21:48;15.80;;;9.00;;
57321;SDS011;43159;51.006;18.224;2022-07-23T14:24:32;16.50;;;10.10;;
57321;SDS011;43159;51.006;18.224;2022-07-23T14:27:16;16.70;;;10.30;;
57321;SDS011;43159;51.006;18.224;2022-07-23T14:30:00;18.00;;;9.10;;
57321;SDS011;43159;51.006;18.224;2022-07-23T14:32:44;15.30;;;8.60;;
57321;SDS011;43159;51.006;18.224;2022-07-23T14:35:29;16.00;;;8.80;;
57321;SDS011;43159;51.006;18.224;2022-07-23T14:38:13;15.70;;;9.30;;
57321;SDS011;43159;51.006;18.224;2022-07-23T14:40:57;15.50;;;8.80;;
57321;SDS011;43159;51.006;18.224;2022-07-23T14:43:42;16.10;;;8.70;;
57321;SDS011;43159;51.006;18.224;2022-07-23T14:46:27;15.30;;;7.80;;
57321;SDS011;43159;51.006;18.224;2022-07-23T14:49:11;16.20;;;8.10;;
57321;SDS011;43159;51.006;18.224;2022-07-23T14:51:55;14.50;;;7.70;;
57321;SDS011;43159;51.006;18.224;2022-07-23T14:54:39;14.80;;;7.80;;
57321;SDS011;43159;51.006;18.224;2022-07-23T14:57:23;16.00;;;8.00;;
57321;SDS011;43159;51.006;18.224;2022-07-23T15:00:07;13.80;;;7.50;;
57321;SDS011;43159;51.006;18.224;2022-07-23T15:02:52;15.40;;;7.90;;
57321;SDS011;43159;51.006;18.224;2022-07-23T15:05:37;14.10;;;7.70;;
57321;SDS011;43159;51.006;18.224;2022-07-23T15:08:21;14.40;;;8.30;;
57321;SDS011;43159;51.006;18.224;2022-07-23T15:11:05;17.00;;;8.30;;
57321;SDS011;43159;51.006;18.224;2022-07-23T15:13:52;13.90;;;7.60;;
57321;SDS011;43159;51.006;18.224;2022-07-23T15:16:37;16.60;;;7.90;;
57321;SDS011;43159;51.006;18.224;2022-07-23T15:19:21;15.10;;;7.40;;
57321;SDS011;43159;51.006;18.224;2022-07-23T15:22:05;14.70;;;7.10;;
57321;SDS011;43159;51.006;18.224;2022-07-23T15:24:49;14.00;;;7.30;;
57321;SDS011;43159;51.006;18.224;2022-07-23T15:27:33;13.40;;;7.10;;
57321;SDS011;43159;51.006;18.224;2022-07-23T15:30:17;15.00;;;7.70;;
57321;SDS011;43159;51.006;18.224;2022-07-23T15:33:01;13.70;;;7.60;;
57321;SDS011;43159;51.006;18.224;2022-07-23T15:35:45;14.20;;;7.20;;
57321;SDS011;43159;51.006;18.224;2022-07-23T15:38:29;15.10;;;7.90;;
57321;SDS011;43159;51.006;18.224;2022-07-23T15:41:13;15.50;;;7.30;;
57321;SDS011;43159;51.006;18.224;2022-07-23T15:43:58;15.10;;;7.90;;
57321;SDS011;43159;51.006;18.224;2022-07-23T15:46:42;15.30;;;9.40;;
57321;SDS011;43159;51.006;18.224;2022-07-23T15:49:26;18.30;;;10.80;;
57321;SDS011;43159;51.006;18.224;2022-07-23T15:52:11;18.10;;;10.60;;
57321;SDS011;43159;51.006;18.224;2022-07-23T15:54:55;16.00;;;9.70;;
57321;SDS011;43159;51.006;18.224;2022-07-23T15:57:39;16.30;;;10.10;;
57321;SDS011;43159;51.006;18.224;2022-07-23T16:00:23;19.70;;;11.20;;
57321;SDS011;43159;51.006;18.224;2022-07-23T16:03:07;19.70;;;11.20;;
57321;SDS011;43159;51.006;18.224;2022-07-23T16:05:51;16.20;;;9.50;;
57321;SDS011;43159;51.006;18.224;2022-07-23T16:08:35;16.60;;;9.90;;
57321;SDS011;43159;51.006;18.224;2022-07-23T16:11:20;19.20;;;11.40;;
57321;SDS011;43159;51.006;18.224;2022-07-23T16:14:04;17.50;;;10.70;;
57321;SDS011;43159;51.006;18.224;2022-07-23T16:16:48;19.80;;;12.10;;